sensor_id;sensor_type;location;lat;lon;timestamp;P1;durP1;ratioP1;P2;durP2;ratioP2
19905;SDS011;10115;50.906;4.438;2023-04-03T00:00:53;9.17;;;8.47;;
19905;SDS011;10115;50.906;4.438;2023-04-03T00:03:19;10.13;;;9.33;;
19905;SDS011;10115;50.906;4.438;2023-04-03T00:05:45;9.60;;;8.97;;
19905;SDS011;10115;50.906;4.438;2023-04-03T00:08:11;9.50;;;8.80;;
19905;SDS011;10115;50.906;4.438;2023-04-03T00:10:37;10.60;;;9.70;;
19905;SDS011;10115;50.906;4.438;2023-04-03T00:13:03;10.77;;;9.90;;
19905;SDS011;10115;50.906;4.438;2023-04-03T00:15:31;10.60;;;9.27;;
19905;SDS011;10115;50.906;4.438;2023-04-03T00:17:59;10.90;;;9.80;;
19905;SDS011;10115;50.906;4.438;2023-04-03T00:20:25;8.57;;;8.03;;
19905;SDS011;10115;50.906;4.438;2023-04-03T00:22:52;10.03;;;9.33;;
19905;SDS011;10115;50.906;4.438;2023-04-03T00:25:18;9.53;;;8.93;;
19905;SDS011;10115;50.906;4.438;2023-04-03T00:27:44;9.67;;;8.87;;
19905;SDS011;10115;50.906;4.438;2023-04-03T00:30:10;9.33;;;8.73;;
19905;SDS011;10115;50.906;4.438;2023-04-03T00:32:38;9.03;;;8.43;;
19905;SDS011;10115;50.906;4.438;2023-04-03T00:35:04;9.00;;;8.50;;
19905;SDS011;10115;50.906;4.438;2023-04-03T00:37:30;9.50;;;8.97;;
19905;SDS011;10115;50.906;4.438;2023-04-03T00:39:56;8.97;;;8.37;;
19905;SDS011;10115;50.906;4.438;2023-04-03T00:42:22;9.90;;;9.13;;
19905;SDS011;10115;50.906;4.438;2023-04-03T00:47:15;9.90;;;9.23;;
19905;SDS011;10115;50.906;4.438;2023-04-03T00:49:42;8.80;;;8.23;;
19905;SDS011;10115;50.906;4.438;2023-04-03T00:52:09;9.20;;;8.60;;
19905;SDS011;10115;50.906;4.438;2023-04-03T00:54:41;8.47;;;7.83;;
19905;SDS011;10115;50.906;4.438;2023-04-03T00:57:08;9.43;;;8.53;;
19905;SDS011;10115;50.906;4.438;2023-04-03T00:59:38;8.87;;;8.37;;
19905;SDS011;10115;50.906;4.438;2023-04-03T01:02:12;9.00;;;8.30;;
19905;SDS011;10115;50.906;4.438;2023-04-03T01:04:38;15.23;;;9.30;;
19905;SDS011;10115;50.906;4.438;2023-04-03T01:07:17;11.33;;;10.43;;
19905;SDS011;10115;50.906;4.438;2023-04-03T01:09:46;8.43;;;7.93;;
19905;SDS011;10115;50.906;4.438;2023-04-03T01:12:16;9.93;;;9.23;;
19905;SDS011;10115;50.906;4.438;2023-04-03T01:14:44;11.33;;;10.43;;
19905;SDS011;10115;50.906;4.438;2023-04-03T01:18:12;10.67;;;8.37;;
19905;SDS011;10115;50.906;4.438;2023-04-03T01:25:21;9.20;;;8.47;;
19905;SDS011;10115;50.906;4.438;2023-04-03T01:27:47;9.13;;;8.47;;
19905;SDS011;10115;50.906;4.438;2023-04-03T01:30:13;9.10;;;8.50;;
19905;SDS011;10115;50.906;4.438;2023-04-03T01:32:41;8.93;;;8.33;;
19905;SDS011;10115;50.906;4.438;2023-04-03T01:35:08;9.70;;;9.10;;
19905;SDS011;10115;50.906;4.438;2023-04-03T01:37:35;8.73;;;8.17;;
19905;SDS011;10115;50.906;4.438;2023-04-03T01:40:01;8.30;;;7.83;;
19905;SDS011;10115;50.906;4.438;2023-04-03T01:42:27;9.57;;;8.77;;
19905;SDS011;10115;50.906;4.438;2023-04-03T01:44:54;9.67;;;8.80;;
19905;SDS011;10115;50.906;4.438;2023-04-03T01:47:19;9.07;;;8.57;;
19905;SDS011;10115;50.906;4.438;2023-04-03T01:49:46;9.00;;;8.40;;
19905;SDS011;10115;50.906;4.438;2023-04-03T01:52:11;9.00;;;8.50;;
19905;SDS011;10115;50.906;4.438;2023-04-03T01:54:37;9.60;;;8.90;;
19905;SDS011;10115;50.906;4.438;2023-04-03T01:57:03;10.03;;;9.30;;
19905;SDS011;10115;50.906;4.438;2023-04-03T01:59:28;9.90;;;8.97;;
19905;SDS011;10115;50.906;4.438;2023-04-03T02:01:55;9.43;;;8.63;;
19905;SDS011;10115;50.906;4.438;2023-04-03T02:04:21;10.73;;;9.77;;
19905;SDS011;10115;50.906;4.438;2023-04-03T02:06:47;8.93;;;8.43;;
19905;SDS011;10115;50.906;4.438;2023-04-03T02:09:12;10.67;;;9.77;;
19905;SDS011;10115;50.906;4.438;2023-04-03T02:11:38;9.23;;;8.73;;
19905;SDS011;10115;50.906;4.438;2023-04-03T02:14:04;9.50;;;8.90;;
19905;SDS011;10115;50.906;4.438;2023-04-03T02:16:30;9.17;;;8.67;;
19905;SDS011;10115;50.906;4.438;2023-04-03T02:18:55;8.43;;;8.00;;
19905;SDS011;10115;50.906;4.438;2023-04-03T02:21:22;10.80;;;9.90;;
19905;SDS011;10115;50.906;4.438;2023-04-03T02:23:48;9.40;;;8.83;;
19905;SDS011;10115;50.906;4.438;2023-04-03T02:26:14;8.13;;;7.73;;
19905;SDS011;10115;50.906;4.438;2023-04-03T02:28:41;9.10;;;8.60;;
19905;SDS011;10115;50.906;4.438;2023-04-03T02:31:07;9.40;;;8.70;;
19905;SDS011;10115;50.906;4.438;2023-04-03T02:33:34;9.50;;;8.83;;
19905;SDS011;10115;50.906;4.438;2023-04-03T02:36:04;8.63;;;8.13;;
19905;SDS011;10115;50.906;4.438;2023-04-03T02:38:31;9.80;;;9.20;;
19905;SDS011;10115;50.906;4.438;2023-04-03T02:41:01;8.67;;;8.07;;
19905;SDS011;10115;50.906;4.438;2023-04-03T02:43:36;10.53;;;8.77;;
19905;SDS011;10115;50.906;4.438;2023-04-03T02:46:03;9.80;;;9.17;;
19905;SDS011;10115;50.906;4.438;2023-04-03T02:48:30;9.07;;;8.57;;
19905;SDS011;10115;50.906;4.438;2023-04-03T02:50:56;11.00;;;8.63;;
19905;SDS011;10115;50.906;4.438;2023-04-03T02:53:22;9.50;;;8.83;;
19905;SDS011;10115;50.906;4.438;2023-04-03T02:55:48;9.10;;;8.43;;
19905;SDS011;10115;50.906;4.438;2023-04-03T02:58:14;10.73;;;9.80;;
19905;SDS011;10115;50.906;4.438;2023-04-03T03:00:39;9.13;;;8.30;;
19905;SDS011;10115;50.906;4.438;2023-04-03T03:03:05;11.47;;;8.23;;
19905;SDS011;10115;50.906;4.438;2023-04-03T03:05:31;8.67;;;8.20;;
19905;SDS011;10115;50.906;4.438;2023-04-03T03:07:57;8.17;;;7.77;;
19905;SDS011;10115;50.906;4.438;2023-04-03T03:10:23;8.70;;;8.20;;
19905;SDS011;10115;50.906;4.438;2023-04-03T03:12:49;9.43;;;8.83;;
19905;SDS011;10115;50.906;4.438;2023-04-03T03:15:14;8.13;;;7.67;;
19905;SDS011;10115;50.906;4.438;2023-04-03T03:17:42;8.97;;;8.47;;
19905;SDS011;10115;50.906;4.438;2023-04-03T03:20:08;8.93;;;8.43;;
19905;SDS011;10115;50.906;4.438;2023-04-03T03:22:34;9.63;;;9.00;;
19905;SDS011;10115;50.906;4.438;2023-04-03T03:25:01;8.50;;;8.10;;
19905;SDS011;10115;50.906;4.438;2023-04-03T03:27:27;10.63;;;9.83;;
19905;SDS011;10115;50.906;4.438;2023-04-03T03:29:53;7.87;;;7.47;;
19905;SDS011;10115;50.906;4.438;2023-04-03T03:32:18;9.37;;;8.70;;
19905;SDS011;10115;50.906;4.438;2023-04-03T03:34:44;8.63;;;8.23;;
19905;SDS011;10115;50.906;4.438;2023-04-03T03:37:10;9.33;;;8.73;;
19905;SDS011;10115;50.906;4.438;2023-04-03T03:39:35;8.73;;;8.30;;
19905;SDS011;10115;50.906;4.438;2023-04-03T03:42:01;9.17;;;8.57;;
19905;SDS011;10115;50.906;4.438;2023-04-03T03:44:27;8.70;;;8.20;;
19905;SDS011;10115;50.906;4.438;2023-04-03T03:46:54;9.93;;;9.23;;
19905;SDS011;10115;50.906;4.438;2023-04-03T03:49:20;8.27;;;7.70;;
19905;SDS011;10115;50.906;4.438;2023-04-03T03:51:46;9.93;;;9.33;;
19905;SDS011;10115;50.906;4.438;2023-04-03T03:54:12;10.17;;;9.40;;
19905;SDS011;10115;50.906;4.438;2023-04-03T03:56:38;9.30;;;8.80;;
19905;SDS011;10115;50.906;4.438;2023-04-03T03:59:04;10.20;;;9.60;;
19905;SDS011;10115;50.906;4.438;2023-04-03T04:01:30;9.10;;;8.60;;
19905;SDS011;10115;50.906;4.438;2023-04-03T04:03:56;8.93;;;8.53;;
19905;SDS011;10115;50.906;4.438;2023-04-03T04:06:22;10.60;;;9.80;;
19905;SDS011;10115;50.906;4.438;2023-04-03T04:08:48;8.47;;;7.97;;
19905;SDS011;10115;50.906;4.438;2023-04-03T04:11:14;9.43;;;8.70;;
19905;SDS011;10115;50.906;4.438;2023-04-03T04:13:40;9.77;;;9.10;;
19905;SDS011;10115;50.906;4.438;2023-04-03T04:16:06;10.80;;;9.90;;
19905;SDS011;10115;50.906;4.438;2023-04-03T04:18:32;9.50;;;8.97;;
19905;SDS011;10115;50.906;4.438;2023-04-03T04:20:58;10.07;;;9.37;;
19905;SDS011;10115;50.906;4.438;2023-04-03T04:23:23;10.20;;;9.50;;
19905;SDS011;10115;50.906;4.438;2023-04-03T04:25:49;10.17;;;9.53;;
19905;SDS011;10115;50.906;4.438;2023-04-03T04:28:15;9.33;;;8.57;;
19905;SDS011;10115;50.906;4.438;2023-04-03T04:30:42;9.97;;;9.27;;
19905;SDS011;10115;50.906;4.438;2023-04-03T04:33:07;10.77;;;9.97;;
19905;SDS011;10115;50.906;4.438;2023-04-03T04:35:33;9.33;;;8.70;;
19905;SDS011;10115;50.906;4.438;2023-04-03T04:37:59;9.60;;;9.10;;
19905;SDS011;10115;50.906;4.438;2023-04-03T04:40:25;10.03;;;9.37;;
19905;SDS011;10115;50.906;4.438;2023-04-03T04:42:51;9.43;;;8.83;;
19905;SDS011;10115;50.906;4.438;2023-04-03T04:45:17;9.67;;;9.07;;
19905;SDS011;10115;50.906;4.438;2023-04-03T04:47:43;9.37;;;8.67;;
19905;SDS011;10115;50.906;4.438;2023-04-03T04:50:09;9.20;;;8.70;;
19905;SDS011;10115;50.906;4.438;2023-04-03T04:52:35;9.13;;;8.50;;
19905;SDS011;10115;50.906;4.438;2023-04-03T04:55:00;9.67;;;9.07;;
19905;SDS011;10115;50.906;4.438;2023-04-03T04:57:26;8.43;;;7.90;;
19905;SDS011;10115;50.906;4.438;2023-04-03T04:59:52;9.20;;;8.57;;
19905;SDS011;10115;50.906;4.438;2023-04-03T05:02:18;10.13;;;9.33;;
19905;SDS011;10115;50.906;4.438;2023-04-03T05:04:43;9.60;;;8.90;;
19905;SDS011;10115;50.906;4.438;2023-04-03T05:07:09;10.87;;;9.97;;
19905;SDS011;10115;50.906;4.438;2023-04-03T05:09:35;10.73;;;9.87;;
19905;SDS011;10115;50.906;4.438;2023-04-03T05:12:01;10.03;;;9.13;;
19905;SDS011;10115;50.906;4.438;2023-04-03T05:14:27;9.47;;;8.87;;
19905;SDS011;10115;50.906;4.438;2023-04-03T05:16:53;9.70;;;9.10;;
19905;SDS011;10115;50.906;4.438;2023-04-03T05:19:19;10.53;;;9.90;;
19905;SDS011;10115;50.906;4.438;2023-04-03T05:21:46;11.00;;;10.27;;
19905;SDS011;10115;50.906;4.438;2023-04-03T05:24:12;10.53;;;9.67;;
19905;SDS011;10115;50.906;4.438;2023-04-03T05:26:37;10.27;;;9.13;;
19905;SDS011;10115;50.906;4.438;2023-04-03T05:29:03;9.43;;;8.73;;
19905;SDS011;10115;50.906;4.438;2023-04-03T05:31:29;11.00;;;10.00;;
19905;SDS011;10115;50.906;4.438;2023-04-03T05:33:55;9.43;;;8.83;;
19905;SDS011;10115;50.906;4.438;2023-04-03T05:36:21;9.07;;;8.57;;
19905;SDS011;10115;50.906;4.438;2023-04-03T05:38:47;17.63;;;11.77;;
19905;SDS011;10115;50.906;4.438;2023-04-03T05:41:13;10.27;;;9.57;;
19905;SDS011;10115;50.906;4.438;2023-04-03T05:43:40;11.37;;;10.63;;
19905;SDS011;10115;50.906;4.438;2023-04-03T05:46:16;11.67;;;10.83;;
19905;SDS011;10115;50.906;4.438;2023-04-03T05:48:43;10.63;;;9.60;;
19905;SDS011;10115;50.906;4.438;2023-04-03T05:51:13;10.17;;;9.37;;
19905;SDS011;10115;50.906;4.438;2023-04-03T05:53:52;9.80;;;8.87;;
19905;SDS011;10115;50.906;4.438;2023-04-03T05:56:24;9.57;;;8.87;;
19905;SDS011;10115;50.906;4.438;2023-04-03T05:58:50;9.60;;;9.07;;
19905;SDS011;10115;50.906;4.438;2023-04-03T06:01:16;10.07;;;9.47;;
19905;SDS011;10115;50.906;4.438;2023-04-03T06:03:42;10.43;;;9.80;;
19905;SDS011;10115;50.906;4.438;2023-04-03T06:06:07;13.77;;;11.40;;
19905;SDS011;10115;50.906;4.438;2023-04-03T06:08:36;10.43;;;9.73;;
19905;SDS011;10115;50.906;4.438;2023-04-03T06:11:03;11.10;;;10.23;;
19905;SDS011;10115;50.906;4.438;2023-04-03T06:13:29;10.80;;;10.00;;
19905;SDS011;10115;50.906;4.438;2023-04-03T06:15:54;10.70;;;9.80;;
19905;SDS011;10115;50.906;4.438;2023-04-03T06:18:21;9.87;;;9.27;;
19905;SDS011;10115;50.906;4.438;2023-04-03T06:20:46;11.03;;;9.63;;
19905;SDS011;10115;50.906;4.438;2023-04-03T06:23:12;10.77;;;9.97;;
19905;SDS011;10115;50.906;4.438;2023-04-03T06:25:38;11.17;;;10.17;;
19905;SDS011;10115;50.906;4.438;2023-04-03T06:28:03;10.80;;;10.10;;
19905;SDS011;10115;50.906;4.438;2023-04-03T06:30:29;12.60;;;10.40;;
19905;SDS011;10115;50.906;4.438;2023-04-03T06:32:55;11.20;;;10.30;;
19905;SDS011;10115;50.906;4.438;2023-04-03T06:35:21;9.20;;;8.70;;
19905;SDS011;10115;50.906;4.438;2023-04-03T06:37:48;10.63;;;9.83;;
19905;SDS011;10115;50.906;4.438;2023-04-03T06:40:21;11.43;;;10.60;;
19905;SDS011;10115;50.906;4.438;2023-04-03T06:42:48;11.57;;;10.57;;
19905;SDS011;10115;50.906;4.438;2023-04-03T06:45:14;10.90;;;10.10;;
19905;SDS011;10115;50.906;4.438;2023-04-03T06:47:40;17.23;;;9.77;;
19905;SDS011;10115;50.906;4.438;2023-04-03T06:50:06;10.20;;;9.50;;
19905;SDS011;10115;50.906;4.438;2023-04-03T06:52:33;10.80;;;9.93;;
19905;SDS011;10115;50.906;4.438;2023-04-03T06:54:59;11.57;;;10.77;;
19905;SDS011;10115;50.906;4.438;2023-04-03T06:57:25;9.87;;;9.13;;
19905;SDS011;10115;50.906;4.438;2023-04-03T06:59:51;10.67;;;9.87;;
19905;SDS011;10115;50.906;4.438;2023-04-03T07:02:17;11.17;;;10.27;;
19905;SDS011;10115;50.906;4.438;2023-04-03T07:04:42;11.10;;;10.20;;
19905;SDS011;10115;50.906;4.438;2023-04-03T07:07:08;11.93;;;10.70;;
19905;SDS011;10115;50.906;4.438;2023-04-03T07:09:34;11.07;;;10.30;;
19905;SDS011;10115;50.906;4.438;2023-04-03T07:11:59;11.60;;;10.73;;
19905;SDS011;10115;50.906;4.438;2023-04-03T07:14:25;11.43;;;10.53;;
19905;SDS011;10115;50.906;4.438;2023-04-03T07:16:51;10.60;;;9.70;;
19905;SDS011;10115;50.906;4.438;2023-04-03T07:19:17;12.77;;;10.53;;
19905;SDS011;10115;50.906;4.438;2023-04-03T07:21:43;10.87;;;9.97;;
19905;SDS011;10115;50.906;4.438;2023-04-03T07:24:09;11.30;;;10.20;;
19905;SDS011;10115;50.906;4.438;2023-04-03T07:26:35;16.73;;;10.13;;
19905;SDS011;10115;50.906;4.438;2023-04-03T07:29:01;11.67;;;10.23;;
19905;SDS011;10115;50.906;4.438;2023-04-03T07:31:27;11.80;;;10.83;;
19905;SDS011;10115;50.906;4.438;2023-04-03T07:33:53;9.97;;;9.10;;
19905;SDS011;10115;50.906;4.438;2023-04-03T07:36:19;10.03;;;9.27;;
19905;SDS011;10115;50.906;4.438;2023-04-03T07:38:46;10.47;;;9.57;;
19905;SDS011;10115;50.906;4.438;2023-04-03T07:41:16;10.80;;;10.10;;
19905;SDS011;10115;50.906;4.438;2023-04-03T07:43:43;13.63;;;10.43;;
19905;SDS011;10115;50.906;4.438;2023-04-03T07:46:10;12.53;;;11.60;;
19905;SDS011;10115;50.906;4.438;2023-04-03T07:48:36;10.63;;;9.93;;
19905;SDS011;10115;50.906;4.438;2023-04-03T07:51:03;10.37;;;9.57;;
19905;SDS011;10115;50.906;4.438;2023-04-03T07:53:29;11.10;;;10.17;;
19905;SDS011;10115;50.906;4.438;2023-04-03T07:55:56;9.70;;;9.00;;
19905;SDS011;10115;50.906;4.438;2023-04-03T07:58:23;11.07;;;10.23;;
19905;SDS011;10115;50.906;4.438;2023-04-03T08:00:48;10.60;;;9.83;;
19905;SDS011;10115;50.906;4.438;2023-04-03T08:03:14;11.33;;;10.23;;
19905;SDS011;10115;50.906;4.438;2023-04-03T08:05:44;11.03;;;10.17;;
19905;SDS011;10115;50.906;4.438;2023-04-03T08:08:12;10.67;;;9.73;;
19905;SDS011;10115;50.906;4.438;2023-04-03T08:10:39;10.17;;;9.33;;
19905;SDS011;10115;50.906;4.438;2023-04-03T08:13:05;13.67;;;9.87;;
19905;SDS011;10115;50.906;4.438;2023-04-03T08:15:32;10.20;;;9.43;;
19905;SDS011;10115;50.906;4.438;2023-04-03T08:17:58;9.23;;;8.57;;
19905;SDS011;10115;50.906;4.438;2023-04-03T08:20:25;9.07;;;8.47;;
19905;SDS011;10115;50.906;4.438;2023-04-03T08:22:51;11.70;;;8.77;;
19905;SDS011;10115;50.906;4.438;2023-04-03T08:25:17;11.63;;;8.97;;
19905;SDS011;10115;50.906;4.438;2023-04-03T08:27:43;9.67;;;8.83;;
19905;SDS011;10115;50.906;4.438;2023-04-03T08:30:09;8.87;;;8.37;;
19905;SDS011;10115;50.906;4.438;2023-04-03T08:32:35;8.93;;;8.03;;
19905;SDS011;10115;50.906;4.438;2023-04-03T08:35:02;9.43;;;8.73;;
19905;SDS011;10115;50.906;4.438;2023-04-03T08:37:28;11.90;;;8.77;;
19905;SDS011;10115;50.906;4.438;2023-04-03T08:39:54;9.83;;;8.93;;
19905;SDS011;10115;50.906;4.438;2023-04-03T08:45:13;9.37;;;8.37;;
19905;SDS011;10115;50.906;4.438;2023-04-03T08:50:32;9.67;;;8.80;;
19905;SDS011;10115;50.906;4.438;2023-04-03T08:53:02;10.20;;;9.40;;
19905;SDS011;10115;50.906;4.438;2023-04-03T08:55:33;9.30;;;8.53;;
19905;SDS011;10115;50.906;4.438;2023-04-03T08:58:04;9.07;;;8.37;;
19905;SDS011;10115;50.906;4.438;2023-04-03T09:00:38;6.73;;;6.43;;
19905;SDS011;10115;50.906;4.438;2023-04-03T09:03:13;7.33;;;6.93;;
19905;SDS011;10115;50.906;4.438;2023-04-03T09:05:51;7.80;;;7.33;;
19905;SDS011;10115;50.906;4.438;2023-04-03T09:10:57;8.80;;;7.87;;
19905;SDS011;10115;50.906;4.438;2023-04-03T09:13:45;9.63;;;7.93;;
19905;SDS011;10115;50.906;4.438;2023-04-03T09:19:01;8.67;;;8.03;;
19905;SDS011;10115;50.906;4.438;2023-04-03T09:21:38;7.80;;;7.30;;
19905;SDS011;10115;50.906;4.438;2023-04-03T09:24:07;8.90;;;8.10;;
19905;SDS011;10115;50.906;4.438;2023-04-03T09:29:24;6.83;;;6.43;;
19905;SDS011;10115;50.906;4.438;2023-04-03T09:31:58;7.23;;;6.83;;
19905;SDS011;10115;50.906;4.438;2023-04-03T09:34:27;6.90;;;6.50;;
19905;SDS011;10115;50.906;4.438;2023-04-03T09:36:56;7.60;;;7.10;;
19905;SDS011;10115;50.906;4.438;2023-04-03T09:39:28;7.40;;;6.80;;
19905;SDS011;10115;50.906;4.438;2023-04-03T09:41:58;6.77;;;6.47;;
19905;SDS011;10115;50.906;4.438;2023-04-03T09:44:30;7.60;;;7.10;;
19905;SDS011;10115;50.906;4.438;2023-04-03T09:46:56;8.40;;;7.00;;
19905;SDS011;10115;50.906;4.438;2023-04-03T09:49:22;6.57;;;6.27;;
19905;SDS011;10115;50.906;4.438;2023-04-03T09:51:47;7.10;;;6.70;;
19905;SDS011;10115;50.906;4.438;2023-04-03T09:54:24;7.50;;;7.10;;
19905;SDS011;10115;50.906;4.438;2023-04-03T09:57:00;7.37;;;6.67;;
19905;SDS011;10115;50.906;4.438;2023-04-03T09:59:30;8.27;;;6.90;;
19905;SDS011;10115;50.906;4.438;2023-04-03T10:02:02;7.17;;;6.70;;
19905;SDS011;10115;50.906;4.438;2023-04-03T10:04:42;7.97;;;7.43;;
19905;SDS011;10115;50.906;4.438;2023-04-03T10:09:56;6.93;;;6.63;;
19905;SDS011;10115;50.906;4.438;2023-04-03T10:12:25;7.27;;;6.80;;
19905;SDS011;10115;50.906;4.438;2023-04-03T10:17:41;6.93;;;6.53;;
19905;SDS011;10115;50.906;4.438;2023-04-03T10:20:37;9.30;;;6.73;;
19905;SDS011;10115;50.906;4.438;2023-04-03T10:23:16;7.00;;;6.60;;
19905;SDS011;10115;50.906;4.438;2023-04-03T10:31:05;7.47;;;6.30;;
19905;SDS011;10115;50.906;4.438;2023-04-03T10:33:56;10.10;;;6.50;;
19905;SDS011;10115;50.906;4.438;2023-04-03T10:36:37;8.03;;;6.93;;
19905;SDS011;10115;50.906;4.438;2023-04-03T10:44:31;6.90;;;6.50;;
19905;SDS011;10115;50.906;4.438;2023-04-03T10:47:05;6.73;;;6.33;;
19905;SDS011;10115;50.906;4.438;2023-04-03T10:50:21;6.43;;;5.83;;
19905;SDS011;10115;50.906;4.438;2023-04-03T10:52:37;6.53;;;6.13;;
19905;SDS011;10115;50.906;4.438;2023-04-03T10:57:38;7.83;;;6.23;;
19905;SDS011;10115;50.906;4.438;2023-04-03T11:00:06;5.67;;;5.37;;
19905;SDS011;10115;50.906;4.438;2023-04-03T11:02:56;6.23;;;5.73;;
19905;SDS011;10115;50.906;4.438;2023-04-03T11:05:36;5.10;;;4.90;;
19905;SDS011;10115;50.906;4.438;2023-04-03T11:08:28;5.27;;;5.07;;
19905;SDS011;10115;50.906;4.438;2023-04-03T11:11:00;6.43;;;6.13;;
19905;SDS011;10115;50.906;4.438;2023-04-03T11:16:36;6.40;;;6.10;;
19905;SDS011;10115;50.906;4.438;2023-04-03T11:21:42;5.67;;;5.37;;
19905;SDS011;10115;50.906;4.438;2023-04-03T11:24:20;7.17;;;6.60;;
19905;SDS011;10115;50.906;4.438;2023-04-03T11:26:49;5.20;;;5.00;;
19905;SDS011;10115;50.906;4.438;2023-04-03T11:29:18;5.97;;;5.77;;
19905;SDS011;10115;50.906;4.438;2023-04-03T11:34:23;5.57;;;5.27;;
19905;SDS011;10115;50.906;4.438;2023-04-03T11:36:56;5.83;;;5.53;;
19905;SDS011;10115;50.906;4.438;2023-04-03T11:39:34;5.73;;;5.43;;
19905;SDS011;10115;50.906;4.438;2023-04-03T11:47:53;5.57;;;5.27;;
19905;SDS011;10115;50.906;4.438;2023-04-03T11:50:42;8.50;;;5.23;;
19905;SDS011;10115;50.906;4.438;2023-04-03T11:58:16;5.67;;;5.37;;
19905;SDS011;10115;50.906;4.438;2023-04-03T12:00:59;5.90;;;5.50;;
19905;SDS011;10115;50.906;4.438;2023-04-03T12:16:06;5.50;;;5.20;;
19905;SDS011;10115;50.906;4.438;2023-04-03T12:26:36;5.27;;;4.93;;
19905;SDS011;10115;50.906;4.438;2023-04-03T12:32:12;6.10;;;5.60;;
19905;SDS011;10115;50.906;4.438;2023-04-03T12:46:37;5.20;;;5.00;;
19905;SDS011;10115;50.906;4.438;2023-04-03T12:51:58;5.00;;;4.80;;
19905;SDS011;10115;50.906;4.438;2023-04-03T12:54:32;5.93;;;5.40;;
19905;SDS011;10115;50.906;4.438;2023-04-03T12:59:43;5.53;;;5.03;;
19905;SDS011;10115;50.906;4.438;2023-04-03T13:02:30;5.27;;;4.77;;
19905;SDS011;10115;50.906;4.438;2023-04-03T13:05:05;5.70;;;5.17;;
19905;SDS011;10115;50.906;4.438;2023-04-03T13:07:33;5.13;;;4.90;;
19905;SDS011;10115;50.906;4.438;2023-04-03T13:12:32;4.77;;;4.57;;
19905;SDS011;10115;50.906;4.438;2023-04-03T13:15:21;7.27;;;5.33;;
19905;SDS011;10115;50.906;4.438;2023-04-03T13:17:50;5.73;;;5.33;;
19905;SDS011;10115;50.906;4.438;2023-04-03T13:20:19;5.10;;;4.90;;
19905;SDS011;10115;50.906;4.438;2023-04-03T13:22:55;5.47;;;4.97;;
19905;SDS011;10115;50.906;4.438;2023-04-03T13:25:27;5.37;;;5.10;;
19905;SDS011;10115;50.906;4.438;2023-04-03T13:27:55;5.97;;;4.80;;
19905;SDS011;10115;50.906;4.438;2023-04-03T13:30:31;5.10;;;4.80;;
19905;SDS011;10115;50.906;4.438;2023-04-03T13:33:00;5.17;;;4.90;;
19905;SDS011;10115;50.906;4.438;2023-04-03T13:35:36;4.70;;;4.40;;
19905;SDS011;10115;50.906;4.438;2023-04-03T13:40:47;5.73;;;5.07;;
19905;SDS011;10115;50.906;4.438;2023-04-03T13:43:25;4.23;;;4.00;;
19905;SDS011;10115;50.906;4.438;2023-04-03T13:45:54;4.13;;;3.93;;
19905;SDS011;10115;50.906;4.438;2023-04-03T13:48:23;4.43;;;4.13;;
19905;SDS011;10115;50.906;4.438;2023-04-03T13:50:59;4.47;;;4.27;;
19905;SDS011;10115;50.906;4.438;2023-04-03T13:53:29;4.23;;;3.83;;
19905;SDS011;10115;50.906;4.438;2023-04-03T13:56:05;4.23;;;3.97;;
19905;SDS011;10115;50.906;4.438;2023-04-03T13:58:34;4.10;;;3.80;;
19905;SDS011;10115;50.906;4.438;2023-04-03T14:04:01;4.57;;;4.23;;
19905;SDS011;10115;50.906;4.438;2023-04-03T14:06:35;7.63;;;4.20;;
19905;SDS011;10115;50.906;4.438;2023-04-03T14:09:01;4.13;;;3.93;;
19905;SDS011;10115;50.906;4.438;2023-04-03T14:11:29;4.03;;;3.73;;
19905;SDS011;10115;50.906;4.438;2023-04-03T14:13:57;4.10;;;3.80;;
19905;SDS011;10115;50.906;4.438;2023-04-03T14:16:26;3.90;;;3.67;;
19905;SDS011;10115;50.906;4.438;2023-04-03T14:18:55;4.13;;;3.93;;
19905;SDS011;10115;50.906;4.438;2023-04-03T14:21:21;3.70;;;3.50;;
19905;SDS011;10115;50.906;4.438;2023-04-03T14:23:48;5.93;;;3.90;;
19905;SDS011;10115;50.906;4.438;2023-04-03T14:26:15;3.97;;;3.53;;
19905;SDS011;10115;50.906;4.438;2023-04-03T14:28:44;4.00;;;3.80;;
19905;SDS011;10115;50.906;4.438;2023-04-03T14:31:11;6.20;;;4.10;;
19905;SDS011;10115;50.906;4.438;2023-04-03T14:33:37;4.57;;;4.27;;
19905;SDS011;10115;50.906;4.438;2023-04-03T14:39:03;4.03;;;3.83;;
19905;SDS011;10115;50.906;4.438;2023-04-03T14:41:30;4.27;;;3.97;;
19905;SDS011;10115;50.906;4.438;2023-04-03T14:43:55;4.10;;;3.83;;
19905;SDS011;10115;50.906;4.438;2023-04-03T14:46:38;4.17;;;3.90;;
19905;SDS011;10115;50.906;4.438;2023-04-03T14:49:11;4.20;;;3.90;;
19905;SDS011;10115;50.906;4.438;2023-04-03T14:51:43;4.33;;;4.03;;
19905;SDS011;10115;50.906;4.438;2023-04-03T14:54:13;3.87;;;3.60;;
19905;SDS011;10115;50.906;4.438;2023-04-03T14:56:41;3.90;;;3.70;;
19905;SDS011;10115;50.906;4.438;2023-04-03T14:59:13;3.93;;;3.50;;
19905;SDS011;10115;50.906;4.438;2023-04-03T15:01:42;4.03;;;3.80;;
19905;SDS011;10115;50.906;4.438;2023-04-03T15:04:14;3.87;;;3.60;;
19905;SDS011;10115;50.906;4.438;2023-04-03T15:06:41;4.60;;;3.70;;
19905;SDS011;10115;50.906;4.438;2023-04-03T15:09:26;3.97;;;3.67;;
19905;SDS011;10115;50.906;4.438;2023-04-03T15:11:53;4.43;;;4.13;;
19905;SDS011;10115;50.906;4.438;2023-04-03T15:14:19;3.60;;;3.30;;
19905;SDS011;10115;50.906;4.438;2023-04-03T15:16:45;3.87;;;3.60;;
19905;SDS011;10115;50.906;4.438;2023-04-03T15:19:11;4.67;;;4.40;;
19905;SDS011;10115;50.906;4.438;2023-04-03T15:21:39;4.30;;;4.00;;
19905;SDS011;10115;50.906;4.438;2023-04-03T15:24:05;3.73;;;3.53;;
19905;SDS011;10115;50.906;4.438;2023-04-03T15:26:31;4.03;;;3.73;;
19905;SDS011;10115;50.906;4.438;2023-04-03T15:28:58;3.83;;;3.53;;
19905;SDS011;10115;50.906;4.438;2023-04-03T15:31:23;3.90;;;3.70;;
19905;SDS011;10115;50.906;4.438;2023-04-03T15:33:49;3.70;;;3.40;;
19905;SDS011;10115;50.906;4.438;2023-04-03T15:36:15;3.90;;;3.53;;
19905;SDS011;10115;50.906;4.438;2023-04-03T15:38:41;4.20;;;3.90;;
19905;SDS011;10115;50.906;4.438;2023-04-03T15:41:06;3.63;;;3.43;;
19905;SDS011;10115;50.906;4.438;2023-04-03T15:43:32;5.03;;;4.27;;
19905;SDS011;10115;50.906;4.438;2023-04-03T15:46:01;4.20;;;3.33;;
19905;SDS011;10115;50.906;4.438;2023-04-03T15:48:27;4.90;;;4.57;;
19905;SDS011;10115;50.906;4.438;2023-04-03T15:50:53;5.97;;;3.60;;
19905;SDS011;10115;50.906;4.438;2023-04-03T15:53:21;3.63;;;3.43;;
19905;SDS011;10115;50.906;4.438;2023-04-03T15:55:47;6.63;;;3.93;;
19905;SDS011;10115;50.906;4.438;2023-04-03T15:58:12;4.30;;;4.00;;
19905;SDS011;10115;50.906;4.438;2023-04-03T16:00:38;4.07;;;3.77;;
19905;SDS011;10115;50.906;4.438;2023-04-03T16:03:06;3.43;;;3.23;;
19905;SDS011;10115;50.906;4.438;2023-04-03T16:05:36;3.50;;;3.17;;
19905;SDS011;10115;50.906;4.438;2023-04-03T16:08:03;6.53;;;3.33;;
19905;SDS011;10115;50.906;4.438;2023-04-03T16:10:30;3.90;;;3.60;;
19905;SDS011;10115;50.906;4.438;2023-04-03T16:12:57;3.97;;;3.57;;
19905;SDS011;10115;50.906;4.438;2023-04-03T16:15:23;6.70;;;4.30;;
19905;SDS011;10115;50.906;4.438;2023-04-03T16:17:49;6.97;;;4.53;;
19905;SDS011;10115;50.906;4.438;2023-04-03T16:20:17;5.63;;;3.67;;
19905;SDS011;10115;50.906;4.438;2023-04-03T16:22:43;3.83;;;3.60;;
19905;SDS011;10115;50.906;4.438;2023-04-03T16:25:11;3.63;;;3.33;;
19905;SDS011;10115;50.906;4.438;2023-04-03T16:27:37;3.50;;;3.33;;
19905;SDS011;10115;50.906;4.438;2023-04-03T16:30:05;4.33;;;4.03;;
19905;SDS011;10115;50.906;4.438;2023-04-03T16:32:33;4.87;;;3.73;;
19905;SDS011;10115;50.906;4.438;2023-04-03T16:34:59;3.93;;;3.73;;
19905;SDS011;10115;50.906;4.438;2023-04-03T16:37:25;4.53;;;4.13;;
19905;SDS011;10115;50.906;4.438;2023-04-03T16:39:51;4.00;;;3.60;;
19905;SDS011;10115;50.906;4.438;2023-04-03T16:42:17;4.03;;;3.83;;